Time;durP1;ratioP1;P1;durP2;ratioP2;P2;SDS_P1;SDS_P2;PMS_P1;PMS_P2;Temp;Humidity;BMP_temperature;BMP_pressure;BME280_temperature;BME280_humidity;BME280_pressure;Samples;Min_cycle;Max_cycle;Signal;HPM_P1;HPM_P2
2022/01/16 00:04:08;;;;;;;;;;;1.70;99.90;;;0.77;100.00;99819.66;4993623;28;20020;-63
2022/01/16 00:06:34;;;;;;;;;;;1.70;99.90;;;1.24;100.00;99912.41;5013766;28;19917;-64
2022/01/16 00:09:00;;;;;;;;;;;1.80;99.90;;;1.34;100.00;99918.09;5012861;28;20407;-63
2022/01/16 00:11:27;;;;;;;;;;;1.80;99.90;;;1.32;100.00;99904.63;5014386;28;19917;-63
2022/01/16 00:13:53;;;;;;;;;;;1.80;99.90;;;1.10;100.00;99887.38;4996767;28;19917;-63
2022/01/16 00:16:18;;;;;;;;;;;1.80;99.90;;;1.28;100.00;99920.81;5014206;28;19923;-63
2022/01/16 00:18:52;;;;;;;;;;;1.80;99.90;;;1.38;100.00;99920.53;5013822;28;19924;-63
2022/01/16 00:21:22;;;;;;;;;;;1.90;99.90;;;1.40;100.00;99935.75;4997942;28;20314;-63
2022/01/16 00:23:48;;;;;;;;;;;1.90;99.90;;;1.39;100.00;99931.53;5014246;28;20433;-63
2022/01/16 00:26:13;;;;;;;;;;;1.90;99.90;;;0.84;100.00;99860.94;5013044;28;19913;-63
2022/01/16 00:28:39;;;;;;;;;;;1.90;99.90;;;1.08;100.00;99863.69;5012611;28;19917;-63
2022/01/16 00:31:05;;;;;;;;;;;1.90;99.90;;;1.45;100.00;99908.50;5013037;28;19940;-63
2022/01/16 00:33:31;;;;;;;;;;;1.90;99.90;;;1.43;100.00;99902.59;5014163;28;19925;-63
2022/01/16 00:35:57;;;;;;;;;;;1.90;99.90;;;1.32;100.00;99872.38;5012791;28;19928;-63
2022/01/16 00:38:22;;;;;;;;;;;1.90;99.90;;;1.19;100.00;99860.06;5012785;28;19929;-63
2022/01/16 00:40:48;;;;;;;;;;;1.90;99.90;;;1.21;100.00;99886.25;5012268;28;19940;-61
2022/01/16 00:43:14;;;;;;;;;;;1.90;99.90;;;1.17;100.00;99890.59;5014039;28;19913;-61
2022/01/16 00:45:40;;;;;;;;;;;1.80;99.90;;;1.33;100.00;99929.13;5013644;28;19924;-62
2022/01/16 00:48:06;;;;;;;;;;;1.90;99.90;;;1.37;100.00;99905.31;5012817;28;19917;-63
2022/01/16 00:50:32;;;;;;;;;;;1.90;99.90;;;1.37;100.00;99923.13;4996366;28;19924;-63
2022/01/16 00:52:58;;;;;;;;;;;1.90;99.90;;;1.27;100.00;99902.19;5013642;28;19924;-63
2022/01/16 00:55:24;;;;;;;;;;;1.90;99.90;;;1.00;100.00;99862.22;5012672;28;20290;-63
2022/01/16 00:57:49;;;;;;;;;;;1.90;99.90;;;0.87;100.00;99854.09;5012248;28;20289;-64
2022/01/16 01:00:15;;;;;;;;;;;1.90;99.90;;;1.42;100.00;99939.06;5012459;28;19913;-63
2022/01/16 01:02:41;;;;;;;;;;;1.90;99.90;;;1.19;100.00;99891.38;5013442;28;19917;-63
2022/01/16 01:05:08;;;;;;;;;;;1.90;99.90;;;1.44;100.00;99939.88;5012366;28;19927;-63
2022/01/16 01:07:35;;;;;;;;;;;1.90;99.90;;;1.50;100.00;99945.63;5013682;28;19921;-63
2022/01/16 01:10:02;;;;;;;;;;;2.00;99.90;;;1.50;100.00;99919.38;4995853;28;19932;-64
2022/01/16 01:12:41;;;;;;;;;;;2.00;99.90;;;1.48;100.00;99916.06;5012527;28;19968;-63
2022/01/16 01:15:09;;;;;;;;;;;2.00;99.90;;;0.83;100.00;99888.06;5012678;28;19921;-63
2022/01/16 01:17:43;;;;;;;;;;;2.00;99.90;;;1.05;100.00;99927.31;5012389;28;20393;-63
2022/01/16 01:20:10;;;;;;;;;;;2.00;99.90;;;1.14;100.00;99918.63;5016256;28;20282;-63
2022/01/16 01:22:36;;;;;;;;;;;1.90;99.90;;;1.35;100.00;99871.47;5017574;28;19924;-63
2022/01/16 01:25:02;;;;;;;;;;;1.80;99.80;;;1.39;100.00;99847.66;5017183;28;19917;-64
2022/01/16 01:27:30;;;;;;;;;;;1.80;99.90;;;1.44;100.00;99843.25;5017293;28;20003;-64
2022/01/16 01:30:02;;;;;;;;;;;1.90;99.90;;;1.22;100.00;99814.22;5016216;28;19963;-63
2022/01/16 01:32:28;;;;;;;;;;;1.90;99.90;;;1.42;100.00;99850.09;5017270;28;20374;-64
2022/01/16 01:34:54;;;;;;;;;;;1.90;99.90;;;1.51;100.00;99855.75;5016076;28;19921;-63
2022/01/16 01:37:19;;;;;;;;;;;1.90;99.90;;;1.27;100.00;99845.44;5016165;28;20290;-63
2022/01/16 01:39:45;;;;;;;;;;;2.00;99.90;;;1.31;100.00;99857.19;4999535;28;19924;-64
2022/01/16 01:42:12;;;;;;;;;;;2.00;99.90;;;1.53;100.00;99902.31;4999527;28;20294;-63
2022/01/16 01:53:09;;;;;;;;;;;2.10;99.90;;;1.37;100.00;99910.41;5016972;28;19963;-63
2022/01/16 01:55:34;;;;;;;;;;;2.10;99.90;;;1.50;100.00;99924.44;4999441;28;19917;-63
2022/01/16 01:58:00;;;;;;;;;;;2.10;99.90;;;1.48;100.00;99929.56;5016559;28;19983;-63
2022/01/16 02:00:26;;;;;;;;;;;2.00;99.90;;;1.36;100.00;99929.91;4999311;28;19958;-63
2022/01/16 02:05:36;;;;;;;;;;;2.00;99.90;;;1.25;100.00;99949.66;5016777;28;19964;-63
2022/01/16 02:08:05;;;;;;;;;;;1.90;99.80;;;1.34;100.00;99969.78;5015070;28;19921;-63
2022/01/16 02:10:32;;;;;;;;;;;1.90;99.70;;;1.45;100.00;99982.22;5016681;28;20012;-61
2022/01/16 02:13:02;;;;;;;;;;;1.90;99.70;;;1.43;100.00;99967.00;5016275;28;19917;-64
2022/01/16 02:31:47;;;;;;;;;;;2.00;99.90;;;1.09;100.00;99949.22;5014995;28;20359;-62
2022/01/16 02:34:34;;;;;;;;;;;2.00;99.90;;;1.24;100.00;99947.16;5014949;28;19940;-62
2022/01/16 02:37:03;;;;;;;;;;;1.90;99.60;;;1.11;100.00;99939.88;5015961;28;19917;-64
2022/01/16 02:39:31;;;;;;;;;;;1.80;99.30;;;1.09;100.00;99949.22;5015561;28;20393;-61
2022/01/16 02:41:58;;;;;;;;;;;1.80;99.30;;;1.07;100.00;99942.53;5014701;28;19971;-61
2022/01/16 02:46:52;;;;;;;;;;;1.70;99.20;;;0.99;100.00;99930.00;5014506;28;19914;-61
2022/01/16 02:49:23;;;;;;;;;;;1.60;99.10;;;0.62;100.00;99884.34;4998734;28;19917;-61
2022/01/16 02:52:03;;;;;;;;;;;1.60;99.20;;;1.02;100.00;99927.38;4998365;28;19917;-62
2022/01/16 02:54:34;;;;;;;;;;;1.60;99.40;;;0.58;100.00;99925.06;5015012;28;19984;-61
2022/01/16 02:57:00;;;;;;;;;;;1.60;99.30;;;0.47;100.00;99873.72;5015509;28;19917;-61
2022/01/16 02:59:26;;;;;;;;;;;1.40;99.00;;;0.71;100.00;99875.69;5014984;28;19925;-61
2022/01/16 03:01:52;;;;;;;;;;;1.40;99.10;;;1.12;100.00;99902.59;5015571;28;19944;-61
2022/01/16 03:04:18;;;;;;;;;;;1.40;99.30;;;1.19;100.00;99909.16;5015698;28;20370;-61
2022/01/16 03:06:43;;;;;;;;;;;1.50;99.50;;;0.95;100.00;99905.53;5014087;28;19917;-61
2022/01/16 03:09:10;;;;;;;;;;;1.60;99.70;;;0.48;100.00;99847.47;5015353;28;19928;-61
2022/01/16 03:11:42;;;;;;;;;;;1.60;99.60;;;0.47;100.00;99894.88;5015305;28;20321;-61
2022/01/16 03:14:10;;;;;;;;;;;1.50;99.30;;;0.86;100.00;99879.53;5015337;28;19913;-61
2022/01/16 03:16:36;;;;;;;;;;;1.50;99.20;;;1.08;100.00;99890.81;5014169;28;19918;-62
2022/01/16 03:21:54;;;;;;;;;;;1.50;99.40;;;0.95;100.00;99821.72;5014299;28;20398;-62
2022/01/16 03:24:43;;;;;;;;;;;1.60;99.50;;;1.08;100.00;99875.56;5014537;28;19917;-62
2022/01/16 03:27:14;;;;;;;;;;;1.60;99.40;;;0.76;100.00;99884.84;5013776;28;19913;-62
2022/01/16 03:29:42;;;;;;;;;;;1.60;99.10;;;0.51;100.00;99845.66;5014198;28;19913;-62
2022/01/16 03:32:11;;;;;;;;;;;1.40;98.80;;;0.99;100.00;99879.19;5014854;28;19976;-62
2022/01/16 03:34:37;;;;;;;;;;;1.40;98.90;;;1.10;100.00;99891.63;5014949;28;20032;-62
2022/01/16 03:37:03;;;;;;;;;;;1.40;99.10;;;0.79;100.00;99865.31;4997270;28;19961;-62
2022/01/16 03:39:29;;;;;;;;;;;1.50;99.30;;;1.18;100.00;99893.97;4981139;28;19920;-62
2022/01/16 03:41:56;;;;;;;;;;;1.50;99.30;;;1.18;100.00;99888.88;4996455;28;19918;-62
2022/01/16 03:44:22;;;;;;;;;;;1.60;99.40;;;1.26;100.00;99892.88;5013574;28;19961;-62
2022/01/16 03:46:48;;;;;;;;;;;1.60;99.50;;;1.39;100.00;99899.34;5013790;28;20309;-62
2022/01/16 03:49:16;;;;;;;;;;;1.70;99.50;;;1.38;100.00;99896.81;4997409;28;19917;-62
2022/01/16 03:51:42;;;;;;;;;;;1.80;99.60;;;1.08;100.00;99914.53;4997563;28;19913;-62
2022/01/16 03:54:10;;;;;;;;;;;1.80;99.30;;;0.63;100.00;99867.41;5013486;28;19917;-62
2022/01/16 03:56:36;;;;;;;;;;;1.70;98.90;;;0.57;100.00;99903.94;5013640;28;20271;-63
2022/01/16 03:59:02;;;;;;;;;;;1.60;98.50;;;0.95;100.00;99919.94;5013190;28;19952;-62
2022/01/16 04:01:28;;;;;;;;;;;1.50;98.50;;;1.03;100.00;99900.28;5013321;28;19921;-62
2022/01/16 04:03:53;;;;;;;;;;;1.60;98.70;;;1.14;100.00;99894.06;5014501;28;19920;-62
2022/01/16 04:06:20;;;;;;;;;;;1.60;98.90;;;1.13;100.00;99886.47;5014468;28;19922;-62
2022/01/16 04:08:49;;;;;;;;;;;1.60;99.00;;;0.74;100.00;99891.66;5013056;28;19921;-61
2022/01/16 04:11:15;;;;;;;;;;;1.50;98.70;;;0.79;100.00;99901.72;5013354;28;19924;-62
2022/01/16 04:13:49;;;;;;;;;;;1.40;98.70;;;0.54;100.00;99898.09;5013092;28;19913;-61
2022/01/16 04:16:15;;;;;;;;;;;1.30;98.70;;;0.54;100.00;99908.25;5014574;28;19925;-62
2022/01/16 04:18:41;;;;;;;;;;;1.20;98.90;;;0.43;100.00;99902.56;5014519;28;19917;-61
2022/01/16 04:21:07;;;;;;;;;;;1.10;99.00;;;0.24;100.00;99907.25;5012933;28;19943;-62
2022/01/16 04:23:32;;;;;;;;;;;1.00;99.20;;;0.24;100.00;99882.69;5014317;28;19940;-62
2022/01/16 04:25:58;;;;;;;;;;;0.90;99.30;;;0.31;100.00;99896.91;5012681;28;19982;-62
2022/01/16 04:28:25;;;;;;;;;;;0.90;99.50;;;0.30;100.00;99885.09;5013930;28;20436;-61
2022/01/16 04:30:51;;;;;;;;;;;0.80;99.60;;;0.07;100.00;99844.19;5013662;28;20283;-62
2022/01/16 04:33:17;;;;;;;;;;;0.90;99.80;;;0.33;100.00;99886.75;4996425;28;19979;-62
2022/01/16 04:35:43;;;;;;;;;;;0.80;99.90;;;0.55;100.00;99885.38;5013100;28;20386;-61
2022/01/16 04:38:09;;;;;;;;;;;0.80;99.90;;;0.79;100.00;99898.34;5012432;28;19929;-62
2022/01/16 04:40:43;;;;;;;;;;;0.90;99.90;;;0.47;100.00;99899.09;5013929;28;19917;-61
2022/01/16 04:45:59;;;;;;;;;;;1.00;99.90;;;0.41;100.00;99895.00;5012753;28;19940;-62
2022/01/16 04:48:25;;;;;;;;;;;1.00;99.90;;;0.23;100.00;99855.66;4996468;28;20362;-62
2022/01/16 04:50:51;;;;;;;;;;;0.90;99.90;;;0.29;100.00;99888.50;5012241;28;19917;-62
2022/01/16 04:53:17;;;;;;;;;;;0.90;99.90;;;0.30;100.00;99884.25;5012274;28;20389;-62
2022/01/16 04:55:43;;;;;;;;;;;0.90;99.90;;;-0.02;100.00;99864.69;5012467;28;19919;-62
2022/01/16 04:58:09;;;;;;;;;;;0.80;99.90;;;0.38;100.00;99906.06;5012273;28;20417;-62
2022/01/16 05:00:34;;;;;;;;;;;0.70;99.90;;;0.63;100.00;99900.41;5012495;28;19917;-62
2022/01/16 05:03:00;;;;;;;;;;;0.80;99.90;;;0.53;100.00;99882.03;5013826;28;19918;-62
2022/01/16 05:05:26;;;;;;;;;;;0.90;99.90;;;0.65;100.00;99894.44;5012399;28;19925;-62
2022/01/16 05:07:52;;;;;;;;;;;1.00;99.90;;;0.58;100.00;99900.50;5013618;28;19922;-62
2022/01/16 05:10:17;;;;;;;;;;;1.10;99.90;;;0.56;100.00;99896.34;5013354;28;19929;-62
2022/01/16 05:12:46;;;;;;;;;;;1.10;99.90;;;0.64;100.00;99854.69;5013644;28;19918;-62
2022/01/16 05:17:56;;;;;;;;;;;1.20;99.90;;;1.03;100.00;99878.25;5013212;28;19940;-62
2022/01/16 05:20:22;;;;;;;;;;;1.30;99.90;;;1.09;100.00;99874.69;5013596;28;20370;-62
2022/01/16 05:22:48;;;;;;;;;;;1.40;99.90;;;1.25;100.00;99890.38;5012144;28;19917;-62
2022/01/16 05:25:16;;;;;;;;;;;1.50;99.90;;;1.28;100.00;99880.16;5011992;28;19917;-61
2022/01/16 05:27:42;;;;;;;;;;;1.50;99.90;;;1.05;100.00;99847.72;5012398;28;19964;-62
2022/01/16 05:30:07;;;;;;;;;;;1.60;99.90;;;1.09;100.00;99859.44;5012187;28;19932;-62
2022/01/16 05:32:34;;;;;;;;;;;1.70;99.90;;;1.24;100.00;99878.53;5013444;28;19921;-62
2022/01/16 05:34:59;;;;;;;;;;;1.70;99.90;;;1.34;100.00;99890.13;5012119;28;19961;-62
2022/01/16 05:37:25;;;;;;;;;;;1.70;99.90;;;1.24;100.00;99891.25;5012074;28;19983;-61
2022/01/16 05:39:51;;;;;;;;;;;1.70;99.90;;;1.34;100.00;99896.06;4995943;28;19949;-62
2022/01/16 05:42:17;;;;;;;;;;;1.70;99.80;;;1.30;100.00;99888.56;5011867;28;19929;-62
2022/01/16 05:44:43;;;;;;;;;;;1.80;99.80;;;1.35;100.00;99896.91;5013406;28;19917;-62
2022/01/16 05:47:12;;;;;;;;;;;1.80;99.80;;;1.37;100.00;99905.31;5011815;28;19918;-62
2022/01/16 05:49:40;;;;;;;;;;;1.80;99.80;;;1.42;100.00;99898.41;5011960;28;19924;-62
2022/01/16 05:52:06;;;;;;;;;;;1.80;99.70;;;1.09;100.00;99857.75;5012854;28;20028;-62
2022/01/16 05:54:32;;;;;;;;;;;1.90;99.70;;;1.22;100.00;99865.06;5012176;28;19917;-62
2022/01/16 05:56:58;;;;;;;;;;;1.90;99.60;;;1.42;100.00;99908.56;5011943;28;19917;-62
2022/01/16 05:59:24;;;;;;;;;;;1.90;99.60;;;1.41;100.00;99902.66;5013389;28;20266;-62
2022/01/16 06:01:50;;;;;;;;;;;1.90;99.50;;;1.39;100.00;99899.34;5011992;28;19918;-62
2022/01/16 06:04:15;;;;;;;;;;;1.90;99.50;;;1.41;100.00;99911.97;5012124;28;20371;-62
2022/01/16 06:06:41;;;;;;;;;;;1.90;99.30;;;1.38;100.00;99907.00;4999400;28;19921;-62
2022/01/16 06:09:07;;;;;;;;;;;1.90;99.30;;;1.38;100.00;99918.00;5016339;28;19932;-62
2022/01/16 06:11:33;;;;;;;;;;;1.90;99.20;;;1.37;100.00;99923.13;5016734;28;20267;-62
2022/01/16 06:13:59;;;;;;;;;;;1.90;99.10;;;1.14;100.00;99919.47;5015111;28;19921;-62
2022/01/16 06:16:24;;;;;;;;;;;1.80;98.90;;;1.29;100.00;99923.31;5016587;28;19923;-62
2022/01/16 06:18:51;;;;;;;;;;;1.80;98.70;;;1.14;100.00;99924.56;5016338;28;20367;-62
2022/01/16 06:21:17;;;;;;;;;;;1.80;98.60;;;1.20;100.00;99930.34;5016235;28;20337;-64
2022/01/16 06:23:43;;;;;;;;;;;1.80;98.40;;;1.03;100.00;99941.75;5015456;28;19925;-62
2022/01/16 06:26:09;;;;;;;;;;;1.80;98.30;;;1.06;100.00;99939.16;5015091;28;20282;-62
2022/01/16 06:28:34;;;;;;;;;;;1.70;98.00;;;0.46;100.00;99930.44;5015399;28;19921;-62
2022/01/16 06:31:02;;;;;;;;;;;1.60;97.70;;;0.90;100.00;99942.94;5014875;28;19922;-62
2022/01/16 06:33:28;;;;;;;;;;;1.50;97.70;;;0.48;100.00;99913.47;5016207;28;19921;-62
2022/01/16 06:35:53;;;;;;;;;;;1.50;97.90;;;0.75;100.00;99949.19;5014981;28;19917;-61
2022/01/16 06:38:19;;;;;;;;;;;1.40;98.00;;;0.46;100.00;99903.34;5015889;28;20056;-61
2022/01/16 06:40:45;;;;;;;;;;;1.40;98.10;;;0.70;100.00;99947.63;5016383;28;19968;-61
2022/01/16 06:43:11;;;;;;;;;;;1.30;98.20;;;0.79;100.00;99951.66;5015870;28;19924;-62
2022/01/16 06:45:36;;;;;;;;;;;1.40;98.40;;;0.92;100.00;99938.63;5015096;28;19991;-62
2022/01/16 06:48:02;;;;;;;;;;;1.40;98.80;;;0.32;100.00;99911.28;5015831;28;19948;-62
2022/01/16 06:50:28;;;;;;;;;;;1.40;98.60;;;0.29;100.00;99946.03;5016185;28;19917;-61
2022/01/16 06:52:54;;;;;;;;;;;1.30;98.50;;;-0.14;100.00;99911.41;5015017;28;19921;-62
2022/01/16 06:55:20;;;;;;;;;;;1.20;98.30;;;0.17;100.00;99939.50;5015616;28;19922;-62
2022/01/16 06:57:45;;;;;;;;;;;1.00;98.20;;;0.40;100.00;99974.56;5015791;28;19920;-62
2022/01/16 07:00:11;;;;;;;;;;;1.00;98.50;;;0.67;100.00;99971.38;5015889;28;19925;-62
2022/01/16 07:02:37;;;;;;;;;;;1.00;98.70;;;0.41;100.00;99972.84;5015887;28;20437;-62
2022/01/16 07:05:04;;;;;;;;;;;1.10;99.00;;;0.42;100.00;99998.19;5014467;28;19963;-63
2022/01/16 07:07:30;;;;;;;;;;;1.00;98.80;;;0.48;100.00;99989.63;4998331;28;20263;-62
2022/01/16 07:09:56;;;;;;;;;;;1.00;98.80;;;0.55;100.00;99994.53;5015524;28;19927;-62
2022/01/16 07:12:22;;;;;;;;;;;1.00;98.90;;;0.60;100.00;100002.03;5015408;28;20321;-62
2022/01/16 07:14:48;;;;;;;;;;;1.10;99.00;;;0.37;100.00;99987.31;5014253;28;20290;-62
2022/01/16 07:17:14;;;;;;;;;;;1.10;99.00;;;0.81;100.00;100009.19;4997874;28;19917;-62
2022/01/16 07:19:40;;;;;;;;;;;1.10;98.90;;;0.82;100.00;99995.63;5014258;28;19967;-62
2022/01/16 07:22:06;;;;;;;;;;;1.20;99.00;;;0.26;100.00;99992.59;4981544;28;19917;-62
2022/01/16 07:24:32;;;;;;;;;;;1.20;98.80;;;0.11;100.00;99987.00;4998108;28;19948;-62
2022/01/16 07:27:00;;;;;;;;;;;1.00;98.40;;;0.09;100.00;99992.09;4997804;28;19967;-62
2022/01/16 07:29:29;;;;;;;;;;;0.90;98.50;;;0.28;100.00;100023.03;5015364;28;20004;-62
2022/01/16 07:31:55;;;;;;;;;;;0.80;98.90;;;0.04;100.00;100013.34;5015040;28;19918;-62
2022/01/16 07:34:21;;;;;;;;;;;0.80;98.70;;;-0.22;100.00;99958.06;4997382;28;20453;-62
2022/01/16 07:36:47;;;;;;;;;;;0.80;98.80;;;-0.20;100.00;99976.63;5015365;28;20035;-62
2022/01/16 07:39:13;;;;;;;;;;;0.70;98.80;;;-0.01;100.00;100008.38;5013731;28;20398;-62
2022/01/16 07:41:38;;;;;;;;;;;0.60;98.90;;;0.29;100.00;100023.00;5013868;28;19913;-62
2022/01/16 07:44:04;;;;;;;;;;;0.60;99.00;;;0.27;100.00;100023.88;5013468;28;19924;-62
2022/01/16 07:46:30;;;;;;;;;;;0.70;99.20;;;0.24;100.00;100055.25;5013829;28;20333;-62
2022/01/16 07:48:56;;;;;;;;;;;0.70;99.30;;;0.30;100.00;100049.22;4981007;28;19918;-62
2022/01/16 07:51:22;;;;;;;;;;;0.80;99.30;;;0.33;100.00;100051.69;5014964;28;19974;-62
2022/01/16 07:53:48;;;;;;;;;;;0.80;99.20;;;0.32;100.00;100050.88;5013484;28;19921;-62
2022/01/16 07:56:14;;;;;;;;;;;0.80;99.10;;;0.31;100.00;100071.19;5014488;28;20053;-62
2022/01/16 07:58:41;;;;;;;;;;;0.90;99.20;;;-0.01;100.00;100037.13;5014629;28;20260;-62
2022/01/16 08:01:07;;;;;;;;;;;0.90;99.10;;;0.45;100.00;100073.44;5013285;28;19972;-62
2022/01/16 08:03:33;;;;;;;;;;;0.90;99.00;;;0.68;100.00;100077.19;5014742;28;19917;-62
2022/01/16 08:05:59;;;;;;;;;;;0.90;99.10;;;0.72;100.00;100083.88;5014590;28;19979;-62
2022/01/16 08:08:24;;;;;;;;;;;1.00;99.20;;;0.65;100.00;100048.50;5014025;28;19922;-62
2022/01/16 08:10:50;;;;;;;;;;;1.10;99.30;;;0.92;100.00;100072.44;5014689;28;19970;-62
2022/01/16 08:13:17;;;;;;;;;;;1.20;99.40;;;0.97;100.00;100080.81;5013930;28;20087;-62
2022/01/16 08:15:43;;;;;;;;;;;1.30;99.40;;;0.81;100.00;100070.16;5013068;28;19963;-62
2022/01/16 08:18:10;;;;;;;;;;;1.30;99.30;;;0.93;100.00;100066.50;5013011;28;19961;-62
2022/01/16 08:20:35;;;;;;;;;;;1.40;99.10;;;0.92;100.00;100058.03;5014282;28;20338;-62
2022/01/16 08:23:01;;;;;;;;;;;1.40;99.00;;;0.94;100.00;100058.00;5013099;28;19914;-62
2022/01/16 08:25:27;;;;;;;;;;;1.50;99.00;;;1.05;100.00;100059.44;5012752;28;19922;-62
2022/01/16 08:27:53;;;;;;;;;;;1.50;99.00;;;0.73;100.00;100064.41;5013682;28;20409;-62
2022/01/16 08:30:19;;;;;;;;;;;1.50;98.80;;;1.03;100.00;100076.41;5012750;28;19920;-62
2022/01/16 08:32:44;;;;;;;;;;;1.50;98.60;;;0.31;100.00;100031.41;5014121;28;19917;-62
2022/01/16 08:35:11;;;;;;;;;;;1.40;98.30;;;0.65;100.00;100071.34;5013964;28;19924;-63
2022/01/16 08:37:36;;;;;;;;;;;1.40;98.10;;;0.70;100.00;100084.78;5013277;28;19929;-63
2022/01/16 08:40:04;;;;;;;;;;;1.40;98.00;;;0.81;100.00;100071.84;5013933;28;20016;-63
2022/01/16 08:42:29;;;;;;;;;;;1.40;97.90;;;0.58;100.00;100096.00;5012759;28;19918;-63
2022/01/16 08:44:55;;;;;;;;;;;1.30;97.80;;;0.48;100.00;100083.53;5012563;28;19928;-63
2022/01/16 08:47:21;;;;;;;;;;;1.30;97.70;;;0.83;100.00;100081.09;5012193;28;19917;-62
2022/01/16 08:49:46;;;;;;;;;;;1.30;97.70;;;0.92;100.00;100085.97;5013970;28;19948;-63
2022/01/16 08:52:13;;;;;;;;;;;1.30;97.90;;;0.85;100.00;100056.50;4995966;28;20401;-63
2022/01/16 08:54:39;;;;;;;;;;;1.30;98.10;;;1.14;100.00;100088.91;5013831;28;19953;-63
2022/01/16 08:57:05;;;;;;;;;;;1.40;98.30;;;1.14;100.00;100087.19;5014003;28;19918;-63
2022/01/16 08:59:31;;;;;;;;;;;1.50;98.40;;;1.24;100.00;100095.41;4996143;28;19924;-63
2022/01/16 09:01:57;;;;;;;;;;;1.60;98.40;;;1.07;100.00;100061.97;5014325;28;20363;-63
2022/01/16 09:04:22;;;;;;;;;;;1.60;98.40;;;1.29;100.00;100110.59;5012757;28;19968;-63
2022/01/16 09:06:48;;;;;;;;;;;1.70;98.50;;;1.36;100.00;100107.03;5012059;28;19964;-63
2022/01/16 09:09:14;;;;;;;;;;;1.70;98.50;;;1.11;100.00;100081.31;5012023;28;20286;-63
2022/01/16 09:11:40;;;;;;;;;;;1.80;98.50;;;1.23;100.00;100070.91;5013612;28;20329;-63
2022/01/16 09:14:06;;;;;;;;;;;1.80;98.50;;;1.45;100.00;100111.91;5012121;28;19921;-63
2022/01/16 09:16:33;;;;;;;;;;;1.90;98.50;;;1.47;100.00;100110.16;4996114;28;19944;-63
2022/01/16 09:18:59;;;;;;;;;;;2.00;98.60;;;1.56;100.00;100120.13;5013879;28;19971;-63
2022/01/16 09:21:25;;;;;;;;;;;2.00;98.60;;;1.55;100.00;100120.97;5013460;28;20321;-63
2022/01/16 09:23:50;;;;;;;;;;;2.00;98.60;;;1.57;100.00;100120.91;5013583;28;19913;-63
2022/01/16 09:26:16;;;;;;;;;;;2.00;98.60;;;1.58;100.00;100123.44;5012136;28;20287;-63
2022/01/16 09:28:42;;;;;;;;;;;2.10;98.70;;;1.63;100.00;100134.34;5013370;28;19919;-63
2022/01/16 09:31:08;;;;;;;;;;;2.10;98.70;;;1.55;100.00;100132.88;5013400;28;19921;-64
2022/01/16 09:33:34;;;;;;;;;;;2.10;98.80;;;1.51;100.00;100137.16;5013449;28;19924;-64
2022/01/16 09:36:01;;;;;;;;;;;2.10;98.60;;;1.23;100.00;100085.31;5012212;28;19913;-63
2022/01/16 09:38:27;;;;;;;;;;;2.10;98.60;;;1.07;100.00;100075.47;4995913;28;19921;-63
2022/01/16 09:40:53;;;;;;;;;;;2.10;98.70;;;1.27;100.00;100142.81;5016415;28;19917;-63
2022/01/16 09:43:19;;;;;;;;;;;2.10;98.60;;;1.50;100.00;100153.28;4999392;28;19913;-63
2022/01/16 09:45:45;;;;;;;;;;;2.10;98.40;;;1.63;100.00;100151.31;5016427;28;20404;-62
2022/01/16 09:48:11;;;;;;;;;;;2.10;98.50;;;1.34;100.00;100112.13;5016842;28;19924;-63
2022/01/16 09:50:36;;;;;;;;;;;2.10;98.70;;;1.62;100.00;100144.56;5017419;28;20381;-63
2022/01/16 09:53:02;;;;;;;;;;;2.20;98.80;;;1.69;100.00;100141.81;5017082;28;19917;-63
2022/01/16 09:55:28;;;;;;;;;;;2.20;98.70;;;1.79;100.00;100153.47;5015558;28;19922;-63
2022/01/16 09:57:54;;;;;;;;;;;2.30;98.90;;;1.54;100.00;100091.34;5016035;28;19913;-63
2022/01/16 10:00:21;;;;;;;;;;;2.40;98.90;;;1.74;100.00;100119.66;5015677;28;19948;-63
2022/01/16 10:02:47;;;;;;;;;;;2.40;99.00;;;1.95;100.00;100153.91;5016859;28;19918;-63
2022/01/16 10:05:36;;;;;;;;;;;2.50;99.00;;;2.01;100.00;100165.66;5016974;28;20373;-63
2022/01/16 10:08:14;;;;;;;;;;;2.50;99.10;;;2.00;100.00;100146.16;5016647;28;19917;-62
2022/01/16 10:10:41;;;;;;;;;;;2.50;99.10;;;2.06;100.00;100161.28;4999696;28;19920;-63
2022/01/16 10:13:24;;;;;;;;;;;2.60;99.10;;;2.04;100.00;100155.41;4999251;28;19923;-63
2022/01/16 10:15:54;;;;;;;;;;;2.60;99.10;;;2.07;100.00;100157.84;5015798;28;20004;-63
2022/01/16 10:18:31;;;;;;;;;;;2.60;99.10;;;2.05;100.00;100146.91;5016422;28;19922;-63
2022/01/16 10:20:57;;;;;;;;;;;2.60;99.10;;;2.20;100.00;100149.03;5016811;28;19913;-63
2022/01/16 10:23:23;;;;;;;;;;;2.70;99.20;;;1.99;100.00;100119.03;5015216;28;19964;-63
2022/01/16 10:25:49;;;;;;;;;;;2.70;99.20;;;1.94;100.00;100108.97;5016587;28;19940;-63
2022/01/16 10:28:22;;;;;;;;;;;2.70;99.20;;;2.24;100.00;100158.25;5015004;28;19917;-63
2022/01/16 10:30:58;;;;;;;;;;;2.80;99.20;;;2.20;100.00;100154.13;4999712;28;19924;-63
2022/01/16 10:33:26;;;;;;;;;;;2.80;99.20;;;2.20;100.00;100154.97;5016000;28;19924;-63
2022/01/16 10:35:53;;;;;;;;;;;2.80;99.10;;;2.26;100.00;100153.97;5016639;28;20362;-63
2022/01/16 10:38:26;;;;;;;;;;;2.80;98.90;;;2.21;100.00;100141.38;5014821;28;20020;-63
2022/01/16 10:40:53;;;;;;;;;;;2.80;98.80;;;2.38;100.00;100166.38;4999359;28;19914;-63
2022/01/16 10:43:21;;;;;;;;;;;2.90;98.80;;;2.35;100.00;100156.28;5015935;28;20016;-63
2022/01/16 10:45:47;;;;;;;;;;;2.90;98.70;;;2.34;100.00;100161.41;5015103;28;19924;-63
2022/01/16 10:48:14;;;;;;;;;;;2.90;98.50;;;2.25;100.00;100148.03;5016174;28;20091;-64
2022/01/16 10:50:47;;;;;;;;;;;2.90;98.50;;;1.95;100.00;100097.94;4998345;28;19917;-63
2022/01/16 10:53:17;;;;;;;;;;;2.90;98.60;;;2.33;100.00;100169.91;5014700;28;19917;-64
2022/01/16 10:55:53;;;;;;;;;;;3.00;98.50;;;2.29;100.00;100166.63;5015820;28;19925;-63
2022/01/16 10:58:23;;;;;;;;;;;2.90;98.30;;;2.42;100.00;100179.84;5014690;28;19924;-63
2022/01/16 11:00:52;;;;;;;;;;;2.90;98.40;;;2.44;100.00;100198.50;5014709;28;19959;-63
2022/01/16 11:03:18;;;;;;;;;;;3.00;98.40;;;2.18;100.00;100145.69;5014507;28;19948;-63
2022/01/16 11:05:44;;;;;;;;;;;3.00;98.40;;;2.44;100.00;100173.88;5014716;28;19917;-63
2022/01/16 11:08:15;;;;;;;;;;;3.00;98.50;;;2.42;100.00;100174.78;4998072;28;19928;-63
2022/01/16 11:10:45;;;;;;;;;;;3.00;98.40;;;2.46;100.00;100186.56;4998283;28;20340;-63
2022/01/16 11:13:12;;;;;;;;;;;3.00;98.30;;;2.24;100.00;100158.25;5014578;28;19939;-63
2022/01/16 11:15:39;;;;;;;;;;;3.00;98.40;;;2.51;100.00;100184.72;5014252;28;19925;-63
2022/01/16 11:18:06;;;;;;;;;;;3.00;98.40;;;2.27;100.00;100153.09;5014830;28;19960;-63
2022/01/16 11:20:35;;;;;;;;;;;3.00;98.40;;;2.46;100.00;100182.31;4997502;28;19917;-63
2022/01/16 11:23:06;;;;;;;;;;;3.00;98.20;;;2.39;100.00;100157.03;5015280;28;19918;-63
2022/01/16 11:25:34;;;;;;;;;;;3.00;98.20;;;2.57;100.00;100187.94;5013798;28;20478;-63
2022/01/16 11:28:11;;;;;;;;;;;3.10;98.20;;;2.59;100.00;100188.72;5014298;28;19956;-64
2022/01/16 11:30:39;;;;;;;;;;;3.10;98.20;;;2.58;100.00;100178.56;5013714;28;19920;-63
2022/01/16 11:33:05;;;;;;;;;;;3.10;98.10;;;2.76;100.00;100189.97;5013892;28;19917;-63
2022/01/16 11:35:32;;;;;;;;;;;3.20;98.00;;;2.18;100.00;100110.88;5013683;28;20017;-63
2022/01/16 11:37:58;;;;;;;;;;;3.20;97.80;;;2.73;100.00;100193.44;5013671;28;20406;-63
2022/01/16 11:40:38;;;;;;;;;;;3.20;97.80;;;2.75;100.00;100195.94;5014802;28;20383;-64
2022/01/16 11:43:32;;;;;;;;;;;3.20;97.60;;;2.74;100.00;100196.81;5014019;28;19963;-64
2022/01/16 11:46:14;;;;;;;;;;;3.20;97.50;;;2.63;100.00;100195.44;5013735;28;19918;-64
2022/01/16 11:48:42;;;;;;;;;;;3.20;97.30;;;2.44;100.00;100186.59;5014724;28;19913;-62
2022/01/16 11:51:37;;;;;;;;;;;3.20;97.20;;;2.68;100.00;100202.94;4997501;28;19989;-62
2022/01/16 11:54:40;;;;;;;;;;;3.20;97.20;;;2.68;100.00;100202.94;5014612;28;19914;-62
2022/01/16 11:57:25;;;;;;;;;;;3.20;97.30;;;2.62;100.00;100200.56;5013746;28;19920;-62
2022/01/16 12:00:14;;;;;;;;;;;3.20;97.30;;;2.62;100.00;100188.66;5013369;28;19916;-68
2022/01/16 12:02:48;;;;;;;;;;;3.30;97.20;;;2.66;100.00;100190.22;5013531;28;19917;-68
2022/01/16 12:05:25;;;;;;;;;;;3.30;97.20;;;2.80;100.00;100189.03;5013728;28;19918;-71